createdAt,value
2022-08-17T00:02:21.173Z,101590.61
2022-08-17T00:04:40.308Z,101586.36
2022-08-17T00:06:54.599Z,101583.83
2022-08-17T00:09:08.558Z,101582.17
2022-08-17T00:11:24.004Z,101583.94
2022-08-17T00:13:39.763Z,101582.16
2022-08-17T00:15:53.191Z,101578.02
2022-08-17T00:19:06.808Z,101573.27
2022-08-17T00:20:40.165Z,101569.54
2022-08-17T00:22:53.569Z,101573.21
2022-08-17T00:25:08.409Z,101570.06
2022-08-17T00:27:21.601Z,101570.60
2022-08-17T00:29:34.748Z,101569.08
2022-08-17T00:31:48.010Z,101565.15
2022-08-17T00:34:01.403Z,101562.92
2022-08-17T00:36:15.223Z,101566.02
2022-08-17T00:38:29.212Z,101563.11
2022-08-17T00:40:45.109Z,101563.70
2022-08-17T00:42:58.575Z,101563.30
2022-08-17T00:45:14.335Z,101562.09
2022-08-17T00:47:27.786Z,101561.31
2022-08-17T00:49:40.912Z,101557.55
2022-08-17T00:51:58.666Z,101554.31
2022-08-17T00:54:14.362Z,101557.91
2022-08-17T00:56:32.092Z,101557.43
2022-08-17T00:58:45.402Z,101556.10
2022-08-17T01:01:02.804Z,101556.07
2022-08-17T01:03:20.923Z,101554.15
2022-08-17T01:05:42.246Z,101549.64
2022-08-17T01:07:57.213Z,101544.48
2022-08-17T01:10:59.967Z,101544.25
2022-08-17T01:12:46.973Z,101543.95
2022-08-17T01:15:00.103Z,101542.44
2022-08-17T01:17:13.671Z,101538.95
2022-08-17T01:19:29.400Z,101536.98
2022-08-17T01:21:46.633Z,101538.16
2022-08-17T01:23:59.926Z,101530.39
2022-08-17T01:26:13.242Z,101529.92
2022-08-17T01:28:52.556Z,101523.71
2022-08-17T01:31:02.762Z,101524.73
2022-08-17T01:33:16.016Z,101522.59
2022-08-17T01:35:29.392Z,101524.85
2022-08-17T01:37:48.315Z,101524.23
2022-08-17T01:40:05.991Z,101518.95
2022-08-17T01:42:24.723Z,101519.08
2022-08-17T01:44:38.543Z,101521.98
2022-08-17T01:46:51.913Z,101518.36
2022-08-17T01:49:09.008Z,101515.86
2022-08-17T01:51:22.991Z,101516.80
2022-08-17T01:53:45.653Z,101519.80
2022-08-17T01:56:03.563Z,101518.92
2022-08-17T01:58:17.079Z,101518.04
2022-08-17T02:00:47.828Z,101513.73
2022-08-17T02:03:03.855Z,101509.40
2022-08-17T02:05:17.363Z,101507.77
2022-08-17T02:07:30.659Z,101506.80
2022-08-17T02:09:45.219Z,101505.16
2022-08-17T02:12:37.852Z,101497.51
2022-08-17T02:14:40.457Z,101492.59
2022-08-17T02:16:53.582Z,101493.01
2022-08-17T02:19:06.773Z,101489.82
2022-08-17T02:21:20.568Z,101489.55
2022-08-17T02:23:36.701Z,101490.50
2022-08-17T02:25:51.671Z,101488.91
2022-08-17T02:28:05.203Z,101489.52
2022-08-17T02:30:59.427Z,101491.61
2022-08-17T02:32:54.644Z,101486.00
2022-08-17T02:35:08.296Z,101492.99
2022-08-17T02:37:21.741Z,101492.64
2022-08-17T02:39:34.931Z,101488.17
2022-08-17T02:41:48.661Z,101485.29
2022-08-17T02:44:01.895Z,101483.14
2022-08-17T02:46:15.776Z,101484.13
2022-08-17T02:48:31.127Z,101487.55
2022-08-17T02:50:45.094Z,101483.88
2022-08-17T02:53:02.036Z,101478.80
2022-08-17T02:55:19.827Z,101476.09
2022-08-17T02:57:33.048Z,101483.25
2022-08-17T02:59:49.076Z,101483.88
2022-08-17T03:02:02.770Z,101485.73
2022-08-17T03:04:16.017Z,101482.34
2022-08-17T03:06:30.394Z,101486.26
2022-08-17T03:08:43.844Z,101482.09
2022-08-17T03:10:57.165Z,101487.52
2022-08-17T03:13:10.465Z,101487.52
2022-08-17T03:15:27.967Z,101489.74
2022-08-17T03:17:41.075Z,101486.70
2022-08-17T03:19:54.199Z,101486.23
2022-08-17T03:22:34.762Z,101487.48
2022-08-17T03:24:41.483Z,101489.16
2022-08-17T03:26:54.610Z,101488.09
2022-08-17T03:29:07.727Z,101483.14
2022-08-17T03:31:22.741Z,101482.31
2022-08-17T03:33:36.018Z,101486.97
2022-08-17T03:35:49.895Z,101485.77
2022-08-17T03:38:04.170Z,101486.17
2022-08-17T03:40:34.602Z,101489.92
2022-08-17T03:42:54.563Z,101486.52
2022-08-17T03:45:09.384Z,101488.41
2022-08-17T03:47:39.215Z,101486.27
2022-08-17T03:50:10.718Z,101488.96
2022-08-17T03:52:40.160Z,101489.67
2022-08-17T03:55:09.448Z,101492.55
2022-08-17T03:57:22.696Z,101494.05
2022-08-17T03:59:36.825Z,101499.50
2022-08-17T04:01:51.610Z,101498.60
2022-08-17T04:04:06.509Z,101501.67
2022-08-17T04:06:19.770Z,101498.56
2022-08-17T04:08:33.139Z,101497.23
2022-08-17T04:10:46.683Z,101498.06
2022-08-17T04:13:01.254Z,101498.91
2022-08-17T04:15:15.816Z,101502.42
2022-08-17T04:17:31.387Z,101499.33
2022-08-17T04:19:44.909Z,101497.79
2022-08-17T04:21:58.990Z,101492.89
2022-08-17T04:24:12.753Z,101497.89
2022-08-17T04:26:53.063Z,101498.50
2022-08-17T04:28:59.828Z,101499.67
2022-08-17T04:31:13.278Z,101502.16
2022-08-17T04:33:28.545Z,101496.55
2022-08-17T04:35:44.157Z,101497.10
2022-08-17T04:37:57.572Z,101494.66
2022-08-17T04:40:28.474Z,101496.90
2022-08-17T04:42:41.794Z,101496.08
2022-08-17T04:44:55.033Z,101495.66
2022-08-17T04:47:08.582Z,101499.16
2022-08-17T04:49:23.968Z,101492.96
2022-08-17T04:51:39.119Z,101497.77
2022-08-17T04:54:01.942Z,101491.83
2022-08-17T04:56:19.014Z,101492.40
2022-08-17T04:58:32.505Z,101488.39
2022-08-17T05:00:46.108Z,101491.92
2022-08-17T05:03:00.452Z,101491.02
2022-08-17T05:05:14.725Z,101486.63
2022-08-17T05:07:31.462Z,101489.27
2022-08-17T05:09:45.139Z,101491.09
2022-08-17T05:11:58.593Z,101486.63
2022-08-17T05:14:11.882Z,101488.88
2022-08-17T05:16:26.035Z,101484.30
2022-08-17T05:18:40.334Z,101487.81
2022-08-17T05:20:53.716Z,101487.49
2022-08-17T05:23:09.208Z,101487.62
2022-08-17T05:25:25.876Z,101483.61
2022-08-17T05:27:40.164Z,101480.38
2022-08-17T05:29:55.265Z,101478.13
2022-08-17T05:32:38.357Z,101480.29
2022-08-17T05:34:50.004Z,101483.52
2022-08-17T05:37:03.224Z,101477.42
2022-08-17T05:39:17.482Z,101476.54
2022-08-17T05:41:30.959Z,101477.41
2022-08-17T05:43:45.727Z,101480.95
2022-08-17T05:46:05.805Z,101480.56
2022-08-17T05:48:19.413Z,101481.71
2022-08-17T05:50:37.301Z,101480.24
2022-08-17T05:52:59.428Z,101477.67
2022-08-17T05:55:23.317Z,101477.00
2022-08-17T05:57:53.727Z,101478.79
2022-08-17T06:00:16.053Z,101475.68
2022-08-17T06:02:47.841Z,101473.72
2022-08-17T06:05:15.991Z,101471.51
2022-08-17T06:07:40.054Z,101471.59
2022-08-17T06:10:04.514Z,101470.36
2022-08-17T06:12:35.529Z,101466.05
2022-08-17T06:15:12.280Z,101465.52
2022-08-17T06:17:28.270Z,101463.87
2022-08-17T06:19:47.399Z,101460.46
2022-08-17T06:22:01.801Z,101461.20
2022-08-17T06:24:28.594Z,101460.54
2022-08-17T06:26:46.631Z,101461.27
2022-08-17T06:29:03.874Z,101460.05
2022-08-17T06:31:24.456Z,101456.27
2022-08-17T06:33:40.991Z,101456.98
2022-08-17T06:36:04.996Z,101451.17
2022-08-17T06:38:37.362Z,101451.95
2022-08-17T06:41:04.899Z,101455.65
2022-08-17T06:43:33.861Z,101457.91
2022-08-17T06:45:51.692Z,101461.19
2022-08-17T06:48:10.484Z,101460.63
2022-08-17T06:50:28.617Z,101463.68
2022-08-17T06:52:48.528Z,101462.94
2022-08-17T06:55:05.410Z,101463.74
2022-08-17T06:57:23.402Z,101463.55
2022-08-17T06:59:54.688Z,101464.33
2022-08-17T07:02:13.509Z,101464.09
2022-08-17T07:04:32.265Z,101467.30
2022-08-17T07:06:50.689Z,101467.30
2022-08-17T07:09:07.599Z,101469.25
2022-08-17T07:11:24.030Z,101466.33
2022-08-17T07:13:49.202Z,101466.44
2022-08-17T07:16:14.318Z,101460.36
2022-08-17T07:18:29.422Z,101461.83
2022-08-17T07:20:46.812Z,101458.98
2022-08-17T07:23:04.875Z,101461.63
2022-08-17T07:25:20.894Z,101458.58
2022-08-17T07:27:36.605Z,101458.02
2022-08-17T07:29:57.845Z,101460.44
2022-08-17T07:32:11.104Z,101462.80
2022-08-17T07:34:24.877Z,101466.39
2022-08-17T07:36:43.242Z,101463.74
2022-08-17T07:39:03.185Z,101465.36
2022-08-17T07:41:16.378Z,101464.95
2022-08-17T07:43:32.497Z,101464.09
2022-08-17T07:46:22.651Z,101466.10
2022-08-17T07:48:38.685Z,101467.17
2022-08-17T07:50:54.395Z,101471.48
2022-08-17T07:53:23.375Z,101468.70
2022-08-17T07:55:41.652Z,101469.41
2022-08-17T07:58:02.035Z,101468.59
2022-08-17T08:00:31.713Z,101468.64
2022-08-17T08:02:48.700Z,101470.00
2022-08-17T08:05:14.218Z,101473.67
2022-08-17T08:07:53.274Z,101473.14
2022-08-17T08:10:08.565Z,101477.04
2022-08-17T08:12:38.057Z,101475.71
2022-08-17T08:14:59.012Z,101477.52
2022-08-17T08:17:13.224Z,101473.06
2022-08-17T08:19:27.431Z,101474.83
2022-08-17T08:21:48.354Z,101471.61
2022-08-17T08:24:10.804Z,101466.21
2022-08-17T08:26:33.144Z,101463.71
2022-08-17T08:28:53.652Z,101465.98
2022-08-17T08:31:16.140Z,101466.70
2022-08-17T08:33:46.629Z,101463.98
2022-08-17T08:36:06.575Z,101460.13
2022-08-17T08:38:30.407Z,101462.23
2022-08-17T08:41:05.250Z,101463.33
2022-08-17T08:43:30.441Z,101467.16
2022-08-17T08:45:59.133Z,101465.57
2022-08-17T08:48:56.244Z,101465.65
2022-08-17T08:51:08.957Z,101460.45
2022-08-17T08:53:35.620Z,101459.07
2022-08-17T08:55:56.480Z,101457.33
2022-08-17T08:58:40.454Z,101454.63
2022-08-17T09:00:54.552Z,101450.23
2022-08-17T09:03:51.779Z,101449.76
2022-08-17T09:06:28.720Z,101449.30
2022-08-17T09:09:11.636Z,101448.51
2022-08-17T09:11:35.013Z,101440.41
2022-08-17T09:14:21.585Z,101436.86
2022-08-17T09:16:41.661Z,101432.02
2022-08-17T09:19:00.179Z,101432.77
2022-08-17T09:21:23.030Z,101434.39
2022-08-17T09:23:43.306Z,101433.58
2022-08-17T09:26:02.127Z,101430.66
2022-08-17T09:28:25.576Z,101422.56
2022-08-17T09:30:46.978Z,101422.06
2022-08-17T09:33:05.715Z,101424.81
2022-08-17T09:35:24.085Z,101422.60
2022-08-17T09:37:43.405Z,101424.34
2022-08-17T09:40:07.417Z,101421.44
2022-08-17T09:42:27.042Z,101420.83
2022-08-17T09:44:47.476Z,101420.14
2022-08-17T09:47:05.161Z,101415.56
2022-08-17T09:49:25.259Z,101413.08
2022-08-17T09:51:43.783Z,101410.13
2022-08-17T09:54:09.511Z,101415.75
2022-08-17T09:57:11.527Z,101415.33
2022-08-17T09:59:43.786Z,101414.95
2022-08-17T10:02:05.731Z,101411.96
2022-08-17T10:04:35.679Z,101413.00
2022-08-17T10:06:56.580Z,101415.10
2022-08-17T10:09:18.021Z,101415.14
2022-08-17T10:11:50.408Z,101413.19
2022-08-17T10:14:35.994Z,101414.89
2022-08-17T10:16:49.355Z,101419.48
2022-08-17T10:19:14.923Z,101420.78
2022-08-17T10:21:45.600Z,101417.56
2022-08-17T10:24:21.781Z,101419.70
2022-08-17T10:26:40.385Z,101418.19
2022-08-17T10:29:18.036Z,101413.22
2022-08-17T10:31:36.351Z,101411.95
2022-08-17T10:34:00.457Z,101413.98
2022-08-17T10:36:22.515Z,101412.87
2022-08-17T10:38:53.224Z,101414.63
2022-08-17T10:41:10.211Z,101415.87
2022-08-17T10:44:35.373Z,101415.88
2022-08-17T10:46:31.429Z,101409.95
2022-08-17T10:48:45.555Z,101408.98
2022-08-17T10:51:09.462Z,101413.45
2022-08-17T10:53:50.600Z,101413.97
2022-08-17T10:56:26.927Z,101412.52
2022-08-17T10:58:50.592Z,101404.48
2022-08-17T11:01:06.898Z,101403.15
2022-08-17T11:03:27.175Z,101400.80
2022-08-17T11:06:07.804Z,101398.48
2022-08-17T11:08:52.392Z,101401.41
2022-08-17T11:11:21.501Z,101403.58
2022-08-17T11:13:41.876Z,101400.95
2022-08-17T11:16:10.084Z,101400.55
2022-08-17T11:18:51.947Z,101399.05
2022-08-17T11:21:27.513Z,101399.51
2022-08-17T11:24:06.666Z,101399.39
2022-08-17T11:26:31.481Z,101399.99
2022-08-17T11:28:55.506Z,101398.69
2022-08-17T11:31:13.362Z,101392.75
2022-08-17T11:34:05.934Z,101391.16
2022-08-17T11:36:37.722Z,101390.11
2022-08-17T11:38:59.022Z,101394.96
2022-08-17T11:41:25.184Z,101387.98
2022-08-17T11:44:18.498Z,101391.41
2022-08-17T11:46:51.060Z,101390.55
2022-08-17T11:49:30.250Z,101391.33
2022-08-17T11:52:12.766Z,101389.91
2022-08-17T11:54:48.280Z,101387.41
2022-08-17T11:57:02.037Z,101384.05
2022-08-17T11:59:44.932Z,101385.10
2022-08-17T12:02:02.806Z,101383.20
2022-08-17T12:04:32.847Z,101389.91
2022-08-17T12:06:55.761Z,101389.53
2022-08-17T12:09:15.674Z,101390.42
2022-08-17T12:12:10.987Z,101390.77
2022-08-17T12:14:08.061Z,101394.57
2022-08-17T12:16:23.985Z,101392.92
2022-08-17T12:18:40.773Z,101386.15
2022-08-17T12:21:06.719Z,101391.40
2022-08-17T12:23:26.310Z,101385.02
2022-08-17T12:25:46.053Z,101384.26
2022-08-17T12:28:05.550Z,101386.82
2022-08-17T12:30:23.896Z,101389.27
2022-08-17T12:32:41.834Z,101396.29
2022-08-17T12:34:55.896Z,101399.36
2022-08-17T12:37:20.317Z,101394.52
2022-08-17T12:39:34.794Z,101395.81
2022-08-17T12:41:50.329Z,101390.71
2022-08-17T12:44:05.374Z,101397.23
2022-08-17T12:46:23.238Z,101396.98
2022-08-17T12:48:38.682Z,101398.16
2022-08-17T12:51:12.567Z,101400.67
2022-08-17T12:53:29.337Z,101395.93
2022-08-17T12:55:44.216Z,101396.74
2022-08-17T12:58:00.836Z,101398.45
2022-08-17T13:00:21.121Z,101392.32
2022-08-17T13:02:50.976Z,101392.67
2022-08-17T13:05:05.501Z,101388.23
2022-08-17T13:07:28.564Z,101387.52
2022-08-17T13:09:41.884Z,101388.37
2022-08-17T13:12:00.272Z,101389.98
2022-08-17T13:14:19.515Z,101389.98
2022-08-17T13:16:34.826Z,101385.08
2022-08-17T13:18:50.992Z,101381.83
2022-08-17T13:21:04.928Z,101385.15
2022-08-17T13:23:26.121Z,101386.17
2022-08-17T13:25:39.711Z,101385.84
2022-08-17T13:27:53.873Z,101389.42
2022-08-17T13:30:10.602Z,101385.13
2022-08-17T13:32:27.389Z,101382.13
2022-08-17T13:35:13.152Z,101384.11
2022-08-17T13:37:40.713Z,101386.55
2022-08-17T13:39:57.115Z,101390.34
2022-08-17T13:42:53.134Z,101387.59
2022-08-17T13:45:35.637Z,101387.82
2022-08-17T13:47:50.021Z,101384.06
2022-08-17T13:50:03.130Z,101386.85
2022-08-17T13:52:35.938Z,101386.74
2022-08-17T13:54:57.568Z,101383.02
2022-08-17T13:57:21.390Z,101383.52
2022-08-17T13:59:53.422Z,101389.61
2022-08-17T14:02:09.554Z,101389.47
2022-08-17T14:04:25.628Z,101389.42
2022-08-17T14:06:53.051Z,101386.25
2022-08-17T14:09:08.858Z,101381.41
2022-08-17T14:11:24.795Z,101377.84
2022-08-17T14:13:37.777Z,101379.39
2022-08-17T14:15:53.957Z,101383.38
2022-08-17T14:18:08.957Z,101390.04
2022-08-17T14:20:23.911Z,101385.69
2022-08-17T14:22:38.781Z,101383.37
2022-08-17T14:24:52.490Z,101384.27
2022-08-17T14:27:07.345Z,101380.52
2022-08-17T14:29:20.454Z,101380.61
2022-08-17T14:31:37.432Z,101380.80
2022-08-17T14:33:50.721Z,101377.42
2022-08-17T14:36:03.841Z,101378.88
2022-08-17T14:38:16.788Z,101375.52
2022-08-17T14:40:30.488Z,101375.64
2022-08-17T14:42:46.045Z,101378.21
2022-08-17T14:44:59.912Z,101376.72
2022-08-17T14:47:16.040Z,101377.52
2022-08-17T14:49:29.568Z,101377.04
2022-08-17T14:51:43.755Z,101378.72
2022-08-17T14:53:58.336Z,101382.71
2022-08-17T14:56:12.064Z,101384.65
2022-08-17T14:58:25.156Z,101383.85
2022-08-17T15:00:38.797Z,101388.95
2022-08-17T15:02:54.914Z,101389.52
2022-08-17T15:05:08.949Z,101387.65
2022-08-17T15:07:21.922Z,101387.77
2022-08-17T15:09:43.010Z,101394.17
2022-08-17T15:11:57.809Z,101393.26
2022-08-17T15:14:10.809Z,101391.02
2022-08-17T15:16:24.577Z,101389.05
2022-08-17T15:18:37.808Z,101380.33
2022-08-17T15:20:51.822Z,101382.13
2022-08-17T15:23:04.843Z,101381.25
2022-08-17T15:25:18.894Z,101382.36
2022-08-17T15:27:32.563Z,101384.91
2022-08-17T15:29:46.375Z,101382.34
2022-08-17T15:32:00.925Z,101381.45
2022-08-17T15:34:13.916Z,101380.84
2022-08-17T15:36:26.991Z,101378.11
2022-08-17T15:38:44.491Z,101376.68
2022-08-17T15:40:58.767Z,101376.55
2022-08-17T15:43:14.384Z,101378.69
2022-08-17T15:45:29.594Z,101373.18
2022-08-17T15:47:43.867Z,101371.97
2022-08-17T15:50:00.044Z,101368.14
2022-08-17T15:52:22.087Z,101361.00
2022-08-17T15:54:36.031Z,101357.33
2022-08-17T15:56:50.625Z,101360.13
2022-08-17T15:59:03.820Z,101362.21
2022-08-17T16:03:01.200Z,101363.61
2022-08-17T16:04:04.655Z,101355.63
2022-08-17T16:06:20.719Z,101352.27
2022-08-17T16:08:34.287Z,101346.17
2022-08-17T16:10:47.359Z,101346.72
2022-08-17T16:13:00.809Z,101341.95
2022-08-17T16:15:15.657Z,101337.68
2022-08-17T16:17:40.330Z,101337.25
2022-08-17T16:19:54.174Z,101333.42
2022-08-17T16:22:07.795Z,101333.71
2022-08-17T16:24:20.823Z,101331.98
2022-08-17T16:26:35.215Z,101333.27
2022-08-17T16:28:48.260Z,101331.93
2022-08-17T16:31:01.450Z,101332.55
2022-08-17T16:33:17.844Z,101324.05
2022-08-17T16:35:31.468Z,101322.21
2022-08-17T16:37:45.465Z,101318.91
2022-08-17T16:39:58.835Z,101314.94
2022-08-17T16:42:25.630Z,101316.48
2022-08-17T16:44:38.630Z,101308.91
2022-08-17T16:46:53.203Z,101306.65
2022-08-17T16:49:06.171Z,101306.88
2022-08-17T16:51:19.162Z,101305.45
2022-08-17T16:53:32.231Z,101302.45
2022-08-17T16:55:45.413Z,101303.23
2022-08-17T16:57:58.384Z,101303.84
2022-08-17T17:00:13.833Z,101303.59
2022-08-17T17:02:34.404Z,101307.27
2022-08-17T17:04:53.931Z,101303.20
2022-08-17T17:07:20.543Z,101298.44
2022-08-17T17:09:38.047Z,101298.02
2022-08-17T17:11:54.852Z,101298.35
2022-08-17T17:14:10.398Z,101298.79
2022-08-17T17:16:40.549Z,101297.16
2022-08-17T17:19:11.554Z,101296.59
2022-08-17T17:21:28.899Z,101297.77
2022-08-17T17:23:58.688Z,101298.64
2022-08-17T17:26:23.112Z,101293.91
2022-08-17T17:28:44.482Z,101295.10
2022-08-17T17:31:03.080Z,101288.68
2022-08-17T17:33:19.672Z,101289.27
2022-08-17T17:35:36.781Z,101288.87
2022-08-17T17:37:51.154Z,101289.83
2022-08-17T17:40:08.733Z,101291.32
2022-08-17T17:42:24.455Z,101289.77
2022-08-17T17:44:41.963Z,101288.67
2022-08-17T17:46:58.068Z,101279.28
2022-08-17T17:49:12.353Z,101282.19
2022-08-17T17:52:05.222Z,101277.80
2022-08-17T17:54:10.030Z,101279.09
2022-08-17T17:56:44.132Z,101276.88
2022-08-17T17:59:04.985Z,101270.00
2022-08-17T18:01:44.945Z,101264.36
2022-08-17T18:04:20.878Z,101265.54
2022-08-17T18:06:42.695Z,101264.08
2022-08-17T18:09:06.480Z,101256.26
2022-08-17T18:11:33.050Z,101248.31
2022-08-17T18:14:03.916Z,101239.63
2022-08-17T18:16:20.365Z,101236.83
2022-08-17T18:18:41.571Z,101234.80
2022-08-17T18:20:56.362Z,101232.98
2022-08-17T18:23:09.889Z,101233.77
2022-08-17T18:25:45.850Z,101235.98
2022-08-17T18:27:58.849Z,101236.15
2022-08-17T18:30:31.357Z,101231.98
2022-08-17T18:32:45.643Z,101232.67
2022-08-17T18:35:01.886Z,101222.86
2022-08-17T18:37:16.162Z,101229.45
2022-08-17T18:39:34.096Z,101230.74
2022-08-17T18:41:49.320Z,101229.40
2022-08-17T18:44:08.158Z,101229.29
2022-08-17T18:46:36.228Z,101231.67
2022-08-17T18:48:59.818Z,101232.20
2022-08-17T18:51:42.358Z,101227.22
2022-08-17T18:54:09.746Z,101218.55
2022-08-17T18:56:38.561Z,101214.84
2022-08-17T18:59:01.645Z,101211.67
2022-08-17T19:01:46.904Z,101203.73
2022-08-17T19:03:54.791Z,101198.88
2022-08-17T19:06:26.072Z,101195.08
2022-08-17T19:08:41.557Z,101188.45
2022-08-17T19:10:59.008Z,101186.77
2022-08-17T19:13:23.299Z,101186.49
2022-08-17T19:15:42.780Z,101184.43
2022-08-17T19:18:02.467Z,101182.80
2022-08-17T19:20:21.654Z,101181.84
2022-08-17T19:22:41.960Z,101180.04
2022-08-17T19:25:02.756Z,101178.89
2022-08-17T19:27:24.029Z,101171.96
2022-08-17T19:29:44.523Z,101170.45
2022-08-17T19:31:57.885Z,101172.96
2022-08-17T19:34:10.816Z,101168.33
2022-08-17T19:36:36.628Z,101165.78
2022-08-17T19:38:57.932Z,101160.70
2022-08-17T19:41:16.795Z,101154.36
2022-08-17T19:43:42.139Z,101153.09
2022-08-17T19:46:05.037Z,101149.27
2022-08-17T19:48:28.100Z,101144.23
2022-08-17T19:50:45.451Z,101145.92
2022-08-17T19:53:08.602Z,101151.92
2022-08-17T19:55:33.795Z,101147.93
2022-08-17T19:57:57.360Z,101151.20
2022-08-17T20:00:14.555Z,101149.92
2022-08-17T20:02:41.103Z,101147.08
2022-08-17T20:04:56.636Z,101146.09
2022-08-17T20:07:11.866Z,101147.02
2022-08-17T20:09:35.135Z,101142.48
2022-08-17T20:11:52.978Z,101145.45
2022-08-17T20:14:13.208Z,101149.39
2022-08-17T20:16:26.536Z,101155.75
2022-08-17T20:18:47.699Z,101160.02
2022-08-17T20:21:04.845Z,101161.58
2022-08-17T20:23:27.027Z,101164.04
2022-08-17T20:25:46.911Z,101161.23
2022-08-17T20:28:06.286Z,101158.69
2022-08-17T20:30:38.729Z,101162.81
2022-08-17T20:33:00.447Z,101164.17
2022-08-17T20:35:28.789Z,101166.17
2022-08-17T20:37:45.973Z,101171.38
2022-08-17T20:40:23.895Z,101169.96
2022-08-17T20:42:38.692Z,101166.77
2022-08-17T20:44:53.127Z,101167.41
2022-08-17T20:47:14.009Z,101166.63
2022-08-17T20:49:33.586Z,101166.85
2022-08-17T20:52:00.754Z,101169.66
2022-08-17T20:54:56.286Z,101168.11
2022-08-17T20:57:14.307Z,101165.64
2022-08-17T21:00:03.931Z,101165.11
2022-08-17T21:02:26.022Z,101168.92
2022-08-17T21:05:01.396Z,101167.18
2022-08-17T21:07:43.401Z,101161.45
2022-08-17T21:10:11.315Z,101167.73
2022-08-17T21:12:49.201Z,101164.91
2022-08-17T21:15:07.124Z,101160.60
2022-08-17T21:17:43.092Z,101155.85
2022-08-17T21:20:11.462Z,101153.24
2022-08-17T21:22:35.866Z,101157.61
2022-08-17T21:25:00.626Z,101157.14
2022-08-17T21:27:23.868Z,101150.80
2022-08-17T21:29:40.282Z,101156.35
2022-08-17T21:32:15.884Z,101154.04
2022-08-17T21:34:36.877Z,101150.27
2022-08-17T21:36:50.739Z,101146.96
2022-08-17T21:39:10.116Z,101144.11
2022-08-17T21:41:28.636Z,101146.05
2022-08-17T21:43:49.586Z,101146.11
2022-08-17T21:46:09.421Z,101150.06
2022-08-17T21:48:26.037Z,101156.66
2022-08-17T21:50:39.957Z,101151.70
2022-08-17T21:52:55.675Z,101150.70
2022-08-17T21:55:09.072Z,101152.39
2022-08-17T21:57:28.545Z,101156.48
2022-08-17T21:59:44.853Z,101159.34
2022-08-17T22:02:00.306Z,101156.85
2022-08-17T22:04:27.815Z,101157.48
2022-08-17T22:06:52.604Z,101150.23
2022-08-17T22:09:26.934Z,101148.30
2022-08-17T22:11:54.337Z,101150.71
2022-08-17T22:14:19.230Z,101149.29
2022-08-17T22:16:33.976Z,101150.14
2022-08-17T22:18:49.109Z,101142.67
2022-08-17T22:21:09.506Z,101146.67
2022-08-17T22:23:46.947Z,101144.42
2022-08-17T22:26:09.514Z,101143.20
2022-08-17T22:28:42.111Z,101152.13
2022-08-17T22:31:07.313Z,101148.41
2022-08-17T22:33:42.677Z,101149.13
2022-08-17T22:36:11.465Z,101143.95
2022-08-17T22:38:35.345Z,101149.65
2022-08-17T22:40:50.921Z,101149.39
2022-08-17T22:43:05.512Z,101149.41
2022-08-17T22:45:18.786Z,101148.97
2022-08-17T22:47:39.970Z,101143.21
2022-08-17T22:49:58.675Z,101155.52
2022-08-17T22:52:32.338Z,101153.76
2022-08-17T22:55:09.428Z,101157.75
2022-08-17T22:57:40.393Z,101154.14
2022-08-17T22:59:55.656Z,101153.02
2022-08-17T23:02:27.703Z,101157.98
2022-08-17T23:04:43.318Z,101157.73
2022-08-17T23:06:57.235Z,101163.20
2022-08-17T23:09:11.553Z,101156.65
2022-08-17T23:11:36.933Z,101153.59
2022-08-17T23:14:02.226Z,101152.27
2022-08-17T23:16:16.150Z,101152.13
2022-08-17T23:18:29.679Z,101148.77
2022-08-17T23:20:44.499Z,101147.19
2022-08-17T23:22:57.696Z,101142.55
2022-08-17T23:25:25.723Z,101140.10
2022-08-17T23:27:38.830Z,101132.95
2022-08-17T23:29:52.096Z,101129.13
2022-08-17T23:32:06.036Z,101131.84
2022-08-17T23:34:20.144Z,101132.55
2022-08-17T23:36:33.644Z,101131.96
2022-08-17T23:38:47.970Z,101134.73
2022-08-17T23:41:03.031Z,101139.23
2022-08-17T23:43:24.723Z,101135.66
2022-08-17T23:45:40.008Z,101134.36
2022-08-17T23:47:53.370Z,101127.81
2022-08-17T23:50:06.689Z,101120.10
2022-08-17T23:52:20.798Z,101116.69
2022-08-17T23:54:38.764Z,101117.36
2022-08-17T23:56:51.764Z,101117.50
2022-08-17T23:59:04.982Z,101122.06
